CET,Max TemperatureF,Mean TemperatureF,Min TemperatureF,Max Dew PointF,MeanDew PointF,Min DewpointF,Max Humidity, Mean Humidity, Min Humidity, Max Sea Level PressureIn, Mean Sea Level PressureIn, Min Sea Level PressureIn, Max VisibilityMiles, Mean VisibilityMiles, Min VisibilityMiles, Max Wind SpeedMPH, Mean Wind SpeedMPH, Max Gust SpeedMPH,PrecipitationIn, CloudCover, Events, WindDirDegrees
2011-10-1,78,74,71,70,66,63,88,73,57,30.15,30.10,30.06,6,5,4,16,5,,0.00,2,,151
2011-10-2,78,73,68,66,64,61,88,72,54,30.24,30.18,30.12,6,6,4,9,4,,0.00,2,,146
2011-10-3,78,72,66,68,65,63,88,77,61,30.27,30.24,30.21,6,6,5,10,6,,0.00,1,,216
2011-10-4,77,70,62,68,64,59,88,81,69,30.27,30.22,30.18,6,5,4,10,6,,0.00,1,,186
2011-10-5,77,70,64,64,63,59,94,76,57,30.24,30.20,30.15,6,4,4,9,4,,0.00,3,,218
2011-10-6,78,68,59,68,59,50,94,72,44,30.21,30.16,30.09,,,,15,8,16,0.00,,,239
2011-10-7,75,67,59,68,61,55,94,78,53,30.15,30.06,29.98,,,,12,6,,0.00,,,275
2011-10-8,77,73,69,70,64,59,94,74,54,30.18,30.12,30.01,6,6,6,14,8,,0.00,3,,115
2011-10-9,75,70,64,64,62,57,88,73,53,30.24,30.19,30.15,6,6,6,12,7,,0.00,2,,117
2011-10-10,75,68,60,66,61,57,88,76,61,30.30,30.27,30.24,6,6,6,9,6,,0.00,1,,211
2011-10-11,82,70,57,63,53,43,88,60,25,30.30,30.23,30.18,,,,15,9,,0.00,,,258
2011-10-12,80,68,57,54,47,41,67,48,24,30.21,30.15,30.12,6,6,6,10,6,,0.00,1,,272
2011-10-13,82,70,57,57,47,43,64,47,26,30.12,30.09,30.04,,,,10,6,,0.00,,,266
2011-10-14,75,67,59,63,52,43,83,59,44,30.09,30.04,30.01,6,6,6,12,7,,0.00,1,,208
2011-10-15,75,68,60,64,58,50,83,69,60,30.18,30.14,30.09,6,6,5,9,6,,0.00,2,,207
2011-10-16,75,68,62,63,60,57,83,74,61,30.24,30.19,30.15,6,6,5,12,6,23,0.00,1,,84
2011-10-17,73,66,60,61,58,54,83,71,60,30.21,30.16,30.12,6,6,6,13,7,,0.00,2,,118
2011-10-18,73,70,64,59,56,52,73,62,47,30.15,30.13,30.09,6,6,6,10,5,,0.00,3,,129
2011-10-19,75,65,55,61,54,50,82,68,47,30.15,30.11,30.06,6,6,6,13,7,16,0.00,1,,243
2011-10-20,71,63,55,61,56,50,83,74,56,30.09,30.07,30.06,6,6,4,12,6,,0.00,1,,266
2011-10-21,73,66,60,63,59,55,83,73,57,30.09,30.04,29.98,6,5,4,10,5,,0.00,3,Rain,161
2011-10-22,69,66,62,63,60,57,94,80,68,30.04,30.00,29.98,6,5,2,20,9,,0.00,3,Rain-Thunderstorm,153
2011-10-23,69,64,59,63,59,55,94,84,73,30.04,29.94,29.86,6,6,1,10,6,,0.00,3,Rain-Thunderstorm,227
2011-10-24,68,64,60,63,59,55,88,84,64,29.83,29.68,29.59,6,6,2,15,6,25,0.00,5,Rain,163
2011-10-25,71,63,55,59,50,45,94,66,38,29.95,29.82,29.71,6,6,6,13,6,,0.00,2,,296
2011-10-26,68,60,51,57,53,48,88,76,60,29.98,29.92,29.86,6,6,6,9,6,,0.00,2,,241
2011-10-27,73,68,62,61,57,50,88,73,44,29.89,29.81,29.71,6,6,2,18,8,28,0.00,4,Rain,174
2011-10-28,73,66,60,55,52,50,73,62,44,30.09,29.97,29.89,6,6,6,18,10,31,0.00,2,,288
2011-10-29,78,68,59,54,52,48,82,56,36,30.09,30.06,30.01,6,6,6,15,10,,0.00,1,,283
2011-10-30,75,66,57,61,55,52,88,70,44,30.12,30.10,30.09,6,6,6,10,6,,0.00,1,,278
2011-10-31,71,65,59,61,58,54,88,78,56,30.12,30.07,30.01,6,6,6,10,4,,0.00,2,,267